Temp: 14.1°C   Hum: 81%
  Wind: 4.0mph   Dir: WSW (258°)
  Rain: 0.6mm Rate: 0.0mm/hr
  Pressure: 1017.8mb

Historic data

Bath Spa Weather Station Historical Data
Daily Summary for October 28, 2021 Units:  Metric    English   Both
Daily Weekly Monthly Yearly Custom
  High: Low: Average:
Temperature: 16.2 °C 13.8 °C 14.7 °C
Dew Point: 13.8 °C 11.7 °C 12.4 °C
Humidity: 92% 78% 84%
Wind Speed: 23.8km/h 0.8km/h 10.6km/h
Wind Gust: 43.5km/h - -
Wind- - South
Pressure: 1013.4 hPa 999.2 hPa -
Precipitation: 1.02 mm    
Historical Graphs
 
 
Tabular Data for October 28, 2021
Time Temperature Dew Point Pressure Wind Wind Speed Wind Gust Humidity Rainfall Rate (Hourly) solar
00:09 14.7 °C 12.3 °C 1013.4 hPa South 4 km/h 12.9 km/h 82.6% 0 mm 0 W/m2
00:14 14.7 °C 12.1 °C 1013.4 hPa South 1.4 km/h 6.4 km/h 82% 0 mm 0 W/m2
00:19 14.7 °C 12.2 °C 1013.4 hPa South 5.6 km/h 11.3 km/h 82.2% 0 mm 0 W/m2
00:24 14.7 °C 12.1 °C 1013.1 hPa South 5.1 km/h 9.7 km/h 82% 0 mm 0 W/m2
00:29 14.7 °C 12.1 °C 1013.1 hPa South 6 km/h 12.9 km/h 82% 0 mm 0 W/m2
00:34 14.7 °C 12.1 °C 1013.1 hPa South 8.2 km/h 16.1 km/h 82% 0 mm 0 W/m2
00:39 14.7 °C 12.1 °C 1012.8 hPa South 4.2 km/h 9.7 km/h 82% 0 mm 0 W/m2
00:44 14.7 °C 12.1 °C 1012.8 hPa South 7.9 km/h 25.7 km/h 82% 0 mm 0 W/m2
00:49 14.7 °C 12.1 °C 1012.8 hPa SSE 4.2 km/h 12.9 km/h 82% 0 mm 0 W/m2
00:54 14.7 °C 12.1 °C 1012.8 hPa SSE 2.6 km/h 6.4 km/h 82% 0 mm 0 W/m2
00:59 14.7 °C 12.2 °C 1012.8 hPa SSE 3.9 km/h 9.7 km/h 82.8% 0 mm 0 W/m2
01:04 14.6 °C 12.2 °C 1012.4 hPa SSE 7.2 km/h 12.9 km/h 83% 0 mm 0 W/m2
01:09 14.6 °C 12.2 °C 1012.4 hPa SSE 2.1 km/h 9.7 km/h 83% 0 mm 0 W/m2
01:14 14.5 °C 12.1 °C 1012.4 hPa SSE 6.8 km/h 12.9 km/h 83% 0 mm 0 W/m2
01:19 14.4 °C 12.1 °C 1012.4 hPa SSE 4.7 km/h 14.5 km/h 83% 0 mm 0 W/m2
01:24 14.4 °C 12.1 °C 1012.4 hPa SSE 5.1 km/h 8 km/h 83% 0 mm 0 W/m2
01:29 14.5 °C 12.1 °C 1012.4 hPa SSE 4.8 km/h 16.1 km/h 83% 0 mm 0 W/m2
01:34 14.5 °C 12.1 °C 1012.4 hPa SSE 5.8 km/h 17.7 km/h 82.4% 0 mm 0 W/m2
01:39 14.5 °C 12 °C 1012.4 hPa SSE 4.2 km/h 9.7 km/h 82% 0 mm 0 W/m2
01:44 14.5 °C 12 °C 1012.1 hPa SSE 3.9 km/h 8 km/h 82% 0 mm 0 W/m2
01:49 14.5 °C 12 °C 1012.1 hPa South 3.9 km/h 11.3 km/h 82% 0 mm 0 W/m2
01:54 14.5 °C 11.9 °C 1012.1 hPa South 2.7 km/h 12.9 km/h 81.8% 0 mm 0 W/m2
01:59 14.5 °C 11.8 °C 1012.1 hPa South 2.7 km/h 12.9 km/h 81% 0 mm 0 W/m2
02:04 14.5 °C 11.8 °C 1012.1 hPa SSE 3.7 km/h 12.9 km/h 81% 0 mm 0 W/m2
02:09 14.6 °C 11.8 °C 1012.1 hPa SSE 5.3 km/h 9.7 km/h 81% 0 mm 0 W/m2
02:14 14.6 °C 11.8 °C 1012.1 hPa SSE 6 km/h 14.5 km/h 81% 0 mm 0 W/m2
02:19 14.6 °C 11.9 °C 1011.7 hPa SE 8.4 km/h 19.3 km/h 81% 0 mm 0 W/m2
02:24 14.6 °C 11.8 °C 1011.7 hPa SE 8.7 km/h 12.9 km/h 80.8% 0 mm 0 W/m2
02:29 14.6 °C 11.7 °C 1012.1 hPa SSE 6.9 km/h 19.3 km/h 80% 0 mm 0 W/m2
02:34 14.6 °C 11.7 °C 1012.1 hPa SSE 3.2 km/h 12.9 km/h 80% 0 mm 0 W/m2
02:39 14.6 °C 11.7 °C 1012.1 hPa SSE 6.3 km/h 14.5 km/h 80% 0 mm 0 W/m2
02:44 14.6 °C 11.7 °C 1012.1 hPa SSE 5.8 km/h 17.7 km/h 80% 0 mm 0 W/m2
02:49 14.6 °C 11.7 °C 1012.1 hPa South 6.6 km/h 16.1 km/h 80% 0 mm 0 W/m2
02:54 14.6 °C 11.7 °C 1011.7 hPa South 5.5 km/h 11.3 km/h 80% 0 mm 0 W/m2
02:59 14.6 °C 11.7 °C 1011.7 hPa South 3.2 km/h 9.7 km/h 80% 0 mm 0 W/m2
03:04 14.6 °C 11.7 °C 1011.7 hPa SSE 7.2 km/h 16.1 km/h 80% 0 mm 0 W/m2
03:09 14.6 °C 11.7 °C 1011.7 hPa SE 6.4 km/h 14.5 km/h 80% 0 mm 0 W/m2
03:14 14.6 °C 11.7 °C 1011.7 hPa SE 3.9 km/h 11.3 km/h 80% 0 mm 0 W/m2
03:19 14.5 °C 11.7 °C 1011.7 hPa SE 0.8 km/h 11.3 km/h 80.6% 0 mm 0 W/m2
03:24 14.5 °C 11.8 °C 1011.4 hPa SSE 6 km/h 19.3 km/h 81% 0 mm 0 W/m2
03:29 14.4 °C 11.7 °C 1011.4 hPa SSE 4.7 km/h 12.9 km/h 81% 0 mm 0 W/m2
03:34 14.4 °C 11.7 °C 1011.4 hPa SE 3.4 km/h 8 km/h 81% 0 mm 0 W/m2
03:39 14.4 °C 11.7 °C 1011.1 hPa SE 7.7 km/h 17.7 km/h 81% 0 mm 0 W/m2
03:44 14.4 °C 11.7 °C 1011.1 hPa SE 5.5 km/h 14.5 km/h 81% 0 mm 0 W/m2
03:48 14.4 °C 11.7 °C 1011.1 hPa SE 8.9 km/h 17.7 km/h 81% 0 mm 0 W/m2
03:54 14.4 °C 11.7 °C 1011.1 hPa SSE 4.8 km/h 17.7 km/h 81% 0 mm 0 W/m2
03:59 14.4 °C 11.8 °C 1011.1 hPa SSE 3.5 km/h 8 km/h 81.4% 0 mm 0 W/m2
04:04 14.3 °C 11.8 °C 1011.1 hPa SSE 0.8 km/h 6.4 km/h 82% 0 mm 0 W/m2
04:09 14.3 °C 11.8 °C 1011.1 hPa SSE 3.4 km/h 8 km/h 82% 0 mm 0 W/m2
04:14 14.3 °C 11.8 °C 1010.7 hPa SSE 6.1 km/h 14.5 km/h 82% 0 mm 0 W/m2
04:19 14.3 °C 11.8 °C 1010.7 hPa SSE 2.6 km/h 11.3 km/h 82% 0 mm 0 W/m2
04:24 14.3 °C 11.8 °C 1010.7 hPa SSE 2.4 km/h 11.3 km/h 82% 0 mm 0 W/m2
04:29 14.3 °C 11.8 °C 1010.7 hPa SSE 5.5 km/h 12.9 km/h 82.8% 0 mm 0 W/m2
04:34 14.2 °C 11.8 °C 1010.7 hPa SSE 2.7 km/h 6.4 km/h 83% 0 mm 0 W/m2
04:39 14.2 °C 11.8 °C 1010.7 hPa SSE 4.7 km/h 8 km/h 83.2% 0 mm 0 W/m2
04:44 14.2 °C 11.9 °C 1010.7 hPa SSE 2.9 km/h 6.4 km/h 84% 0 mm 0 W/m2
04:49 14.1 °C 11.9 °C 1010.7 hPa SSE 2.6 km/h 6.4 km/h 84% 0 mm 0 W/m2
04:53 14.1 °C 11.9 °C 1010.7 hPa SSE 3.9 km/h 6.4 km/h 84% 0 mm 0 W/m2
04:59 14.1 °C 11.9 °C 1010.7 hPa SSE 2.9 km/h 6.4 km/h 84% 0 mm 0 W/m2
05:04 14.1 °C 11.9 °C 1010.7 hPa SSE 6.4 km/h 14.5 km/h 84% 0 mm 0 W/m2
05:09 14.1 °C 11.9 °C 1010.4 hPa SE 6 km/h 14.5 km/h 84% 0 mm 0 W/m2
05:14 14.1 °C 11.9 °C 1010.4 hPa SE 2.6 km/h 12.9 km/h 84% 0 mm 0 W/m2
05:19 14.2 °C 11.9 °C 1010.4 hPa SE 5.6 km/h 12.9 km/h 84% 0 mm 0 W/m2
05:24 14.1 °C 11.9 °C 1010.4 hPa South 6.4 km/h 17.7 km/h 84% 0 mm 0 W/m2
05:29 14.1 °C 11.9 °C 1010.4 hPa South 2.9 km/h 8 km/h 84% 0 mm 0 W/m2
05:34 14.1 °C 11.9 °C 1010.4 hPa South 4.5 km/h 9.7 km/h 84% 0 mm 0 W/m2
05:39 14.1 °C 11.9 °C 1010.4 hPa South 2.1 km/h 6.4 km/h 84% 0 mm 0 W/m2
05:44 14.1 °C 11.9 °C 1010.4 hPa South 5.5 km/h 11.3 km/h 84% 0 mm 0 W/m2
05:49 14.1 °C 11.9 °C 1010 hPa SSE 3.9 km/h 11.3 km/h 84% 0 mm 0 W/m2
05:54 14.1 °C 11.9 °C 1010 hPa SSE 3.7 km/h 8 km/h 84% 0 mm 0 W/m2
05:59 14.1 °C 11.9 °C 1010 hPa SSE 2.6 km/h 9.7 km/h 84.2% 0 mm 0 W/m2
06:04 14.1 °C 12.1 °C 1010 hPa SSE 4.5 km/h 17.7 km/h 85% 0 mm 0 W/m2
06:09 14.1 °C 12.1 °C 1010 hPa SSE 2.4 km/h 6.4 km/h 85% 0 mm 0 W/m2
06:14 14.1 °C 12.1 °C 1010 hPa SSE 3.5 km/h 9.7 km/h 85% 0 mm 0 W/m2
06:19 14.1 °C 12.1 °C 1010 hPa SSE 4.8 km/h 14.5 km/h 85% 0 mm 0 W/m2
06:24 14.1 °C 12.1 °C 1010 hPa SSE 5.5 km/h 14.5 km/h 85% 0 mm 0 W/m2
06:29 14.1 °C 12.1 °C 1010 hPa SSE 5.3 km/h 8 km/h 85% 0 mm 0 W/m2
06:34 14 °C 12.1 °C 1010 hPa SSE 5.8 km/h 16.1 km/h 85.2% 0 mm 0 W/m2
06:39 13.9 °C 12.1 °C 1010 hPa SSE 4.5 km/h 9.7 km/h 86% 0 mm 0 W/m2
06:44 13.9 °C 12.1 °C 1009.7 hPa SSE 5.6 km/h 9.7 km/h 86% 0 mm 0 W/m2
06:49 13.8 °C 12 °C 1009.7 hPa SSE 6.6 km/h 11.3 km/h 86% 0 mm 0 W/m2
06:54 13.8 °C 12.1 °C 1009.7 hPa SSE 5.6 km/h 11.3 km/h 86.4% 0 mm 0 W/m2
06:59 13.8 °C 12.2 °C 1009.7 hPa SSE 4.5 km/h 12.9 km/h 87% 0 mm 0 W/m2
07:03 13.8 °C 12.2 °C 1009.7 hPa SSE 3.5 km/h 12.9 km/h 87% 0 mm 0 W/m2
07:09 13.8 °C 12.2 °C 1009.4 hPa SSE 8 km/h 19.3 km/h 87% 0 mm 0 W/m2
07:14 13.8 °C 12.2 °C 1009.4 hPa SSE 7.9 km/h 12.9 km/h 87% 0 mm 0 W/m2
07:19 13.8 °C 12.2 °C 1009.4 hPa SSE 6.8 km/h 12.9 km/h 87% 0 mm 0 W/m2
07:24 13.8 °C 12.2 °C 1009.4 hPa SSE 9.3 km/h 16.1 km/h 87% 0 mm 0 W/m2
07:29 13.8 °C 12.2 °C 1009 hPa SSE 10.3 km/h 20.9 km/h 86.8% 0 mm 0 W/m2
07:34 13.9 °C 12.1 °C 1009 hPa SSE 17.7 km/h 24.1 km/h 86% 0 mm 0 W/m2
07:39 13.9 °C 12.1 °C 1009 hPa South 7.9 km/h 20.9 km/h 86% 0 mm 0 W/m2
07:44 13.9 °C 12.1 °C 1009 hPa South 7.2 km/h 16.1 km/h 86% 0 mm 0 W/m2
07:49 13.9 °C 12.1 °C 1009 hPa SSE 9.7 km/h 17.7 km/h 86% 0 mm 0 W/m2
07:54 13.9 °C 12.1 °C 1008.7 hPa SSE 7.2 km/h 14.5 km/h 86% 0 mm 0 W/m2
07:59 13.9 °C 12.1 °C 1008.7 hPa SSE 9.5 km/h 19.3 km/h 86% 0 mm 0 W/m2
08:04 13.9 °C 12 °C 1008.7 hPa South 4.8 km/h 14.5 km/h 85.4% 0 mm 0 W/m2
08:09 13.9 °C 11.9 °C 1008.7 hPa South 7.1 km/h 19.3 km/h 85% 0 mm 0 W/m2
08:14 13.9 °C 11.9 °C 1008.7 hPa SSE 8.2 km/h 20.9 km/h 85% 0 mm 0 W/m2
08:19 14 °C 11.9 °C 1008.7 hPa South 17.1 km/h 27.4 km/h 84.6% 0 mm 7 W/m2
08:24 14.1 °C 11.9 °C 1008.7 hPa South 9 km/h 27.4 km/h 84% 0 mm 11 W/m2
08:29 14.1 °C 11.9 °C 1008.7 hPa South 8 km/h 17.7 km/h 84% 0 mm 12 W/m2
08:34 14.1 °C 11.7 °C 1008.7 hPa South 9.3 km/h 20.9 km/h 83% 0 mm 14 W/m2
08:39 14.2 °C 11.7 °C 1008.7 hPa South 9.3 km/h 24.1 km/h 82.3% 0 mm 16 W/m2
08:44 14.3 °C 11.8 °C 1008.7 hPa South 10.8 km/h 27.4 km/h 82% 0 mm 16 W/m2
08:49 14.3 °C 11.7 °C 1008.4 hPa South 9.3 km/h 27.4 km/h 81% 0 mm 21 W/m2
08:54 14.4 °C 11.7 °C 1008.4 hPa South 10 km/h 24.1 km/h 81% 0 mm 21 W/m2
08:59 14.4 °C 11.7 °C 1008.4 hPa South 9.7 km/h 16.1 km/h 81% 0 mm 26 W/m2
09:04 14.4 °C 11.7 °C 1008.4 hPa SSW 12.2 km/h 32.2 km/h 81% 0 mm 33 W/m2
09:09 14.4 °C 11.7 °C 1008.4 hPa South 11.3 km/h 33.8 km/h 80.8% 0 mm 46 W/m2
09:14 14.6 °C 11.7 °C 1008.4 hPa South 12.6 km/h 32.2 km/h 80% 0 mm 46 W/m2
09:19 14.7 °C 11.7 °C 1008.4 hPa South 17.9 km/h 29 km/h 80% 0 mm 47 W/m2
09:24 14.7 °C 11.8 °C 1008.4 hPa SSW 13.2 km/h 29 km/h 80% 0 mm 51 W/m2
09:29 14.7 °C 11.9 °C 1008.4 hPa South 10.9 km/h 29 km/h 80.8% 0 mm 42 W/m2
09:34 14.6 °C 11.9 °C 1008.4 hPa SSW 8.9 km/h 22.5 km/h 81% 0 mm 40 W/m2
09:39 14.7 °C 11.9 °C 1008.4 hPa SSW 12.6 km/h 22.5 km/h 81% 0 mm 46 W/m2
09:44 14.7 °C 12 °C 1008.4 hPa South 11.6 km/h 27.4 km/h 81% 0 mm 39 W/m2
09:49 14.7 °C 12 °C 1008.4 hPa SW 11.9 km/h 27.4 km/h 81% 0 mm 47 W/m2
09:54 14.7 °C 12 °C 1008.4 hPa South 7.6 km/h 22.5 km/h 81% 0 mm 51 W/m2
09:59 14.7 °C 12 °C 1008.4 hPa South 12.6 km/h 33.8 km/h 81% 0 mm 63 W/m2
10:04 14.8 °C 12.1 °C 1008.4 hPa SSW 11.3 km/h 25.7 km/h 81% 0 mm 72 W/m2
10:09 14.8 °C 12.1 °C 1008.4 hPa SSW 13.2 km/h 27.4 km/h 81% 0 mm 63 W/m2
10:14 14.8 °C 12.1 °C 1008.4 hPa SSW 12.2 km/h 29 km/h 81% 0 mm 56 W/m2
10:19 14.8 °C 11.9 °C 1008 hPa South 14.2 km/h 25.7 km/h 80.2% 0 mm 70 W/m2
10:24 14.9 °C 12 °C 1008 hPa South 14.8 km/h 27.4 km/h 80% 0 mm 62 W/m2
10:29 14.9 °C 12 °C 1008 hPa SSW 10.8 km/h 22.5 km/h 80% 0 mm 54 W/m2
10:34 14.9 °C 12 °C 1007.7 hPa SSW 12.2 km/h 22.5 km/h 80% 0 mm 51 W/m2
10:39 14.9 °C 12.2 °C 1007.7 hPa SSW 9 km/h 27.4 km/h 81% 0 mm 53 W/m2
10:44 14.8 °C 12.2 °C 1007.7 hPa South 12.6 km/h 24.1 km/h 81% 0 mm 88 W/m2
10:49 14.8 °C 12.2 °C 1007.3 hPa South 13.2 km/h 29 km/h 81.4% 0 mm 95 W/m2
10:54 14.8 °C 12.2 °C 1007.3 hPa South 10.8 km/h 20.9 km/h 81.2% 0 mm 91 W/m2
10:59 14.9 °C 12.2 °C 1007 hPa South 12.2 km/h 27.4 km/h 81% 0 mm 95 W/m2
11:04 14.9 °C 12.2 °C 1007 hPa SSW 15 km/h 29 km/h 81% 0 mm 116 W/m2
11:09 15 °C 12.3 °C 1007 hPa South 12.9 km/h 25.7 km/h 81% 0 mm 105 W/m2
11:14 15 °C 12.3 °C 1007 hPa South 15.4 km/h 33.8 km/h 81% 0 mm 135 W/m2
11:19 15.1 °C 12.3 °C 1007 hPa SSW 11.9 km/h 33.8 km/h 80.8% 0 mm 105 W/m2
11:24 15.1 °C 12.4 °C 1007 hPa SSW 13.2 km/h 30.6 km/h 81% 0 mm 118 W/m2
11:29 15.1 °C 12.4 °C 1006.7 hPa South 19.3 km/h 33.8 km/h 81% 0 mm 127 W/m2
11:34 15.2 °C 12.4 °C 1007 hPa South 15 km/h 35.4 km/h 81% 0 mm 105 W/m2
11:39 15.2 °C 12.3 °C 1006.7 hPa SSW 15.8 km/h 29 km/h 80.4% 0 mm 93 W/m2
11:44 15.2 °C 12.3 °C 1006.7 hPa SSW 13.5 km/h 30.6 km/h 80% 0 mm 109 W/m2
11:49 15.2 °C 12.3 °C 1006.7 hPa SSW 12.2 km/h 27.4 km/h 80% 0 mm 132 W/m2
11:54 15.2 °C 12.4 °C 1006.7 hPa SSW 9.2 km/h 20.9 km/h 80.8% 0 mm 104 W/m2
11:59 15.3 °C 12.5 °C 1006.3 hPa SSW 12.6 km/h 19.3 km/h 81% 0 mm 130 W/m2
12:04 15.3 °C 12.5 °C 1006.3 hPa South 15.4 km/h 35.4 km/h 81% 0 mm 141 W/m2
12:09 15.3 °C 12.5 °C 1006.3 hPa South 11.6 km/h 30.6 km/h 81% 0 mm 153 W/m2
12:13 15.3 °C 12.5 °C 1006.3 hPa SSW 15.3 km/h 35.4 km/h 81% 0 mm 116 W/m2
12:19 15.3 °C 12.5 °C 1006.3 hPa SSW 17.1 km/h 35.4 km/h 81% 0 mm 137 W/m2
12:24 15.4 °C 12.5 °C 1006.3 hPa South 14.5 km/h 32.2 km/h 80% 0 mm 130 W/m2
12:29 15.4 °C 12.5 °C 1006.3 hPa SSW 18.3 km/h 33.8 km/h 80% 0 mm 116 W/m2
12:34 15.4 °C 12.5 °C 1006 hPa South 14.2 km/h 33.8 km/h 80% 0 mm 132 W/m2
12:39 15.4 °C 12.5 °C 1006.3 hPa SSW 15.4 km/h 27.4 km/h 80% 0 mm 130 W/m2
12:44 15.4 °C 12.5 °C 1006 hPa South 14.8 km/h 25.7 km/h 80% 0 mm 149 W/m2
12:49 15.4 °C 12.5 °C 1006 hPa SSW 16.4 km/h 35.4 km/h 80% 0 mm 207 W/m2
12:54 15.5 °C 12.6 °C 1005.6 hPa SSW 12.6 km/h 27.4 km/h 80% 0 mm 225 W/m2
12:59 15.6 °C 12.7 °C 1005.6 hPa SSW 17.7 km/h 35.4 km/h 80.3% 0 mm 478 W/m2
13:04 15.8 °C 12.8 °C 1005.6 hPa South 10.9 km/h 40.2 km/h 80% 0 mm 485 W/m2
13:09 15.9 °C 12.7 °C 1005.6 hPa SSW 14.8 km/h 40.2 km/h 79% 0 mm 485 W/m2
13:14 15.9 °C 12.6 °C 1005.6 hPa SSW 18.7 km/h 37 km/h 78% 0 mm 302 W/m2
13:19 15.8 °C 12.5 °C 1005.3 hPa South 18.7 km/h 41.8 km/h 78% 0 mm 278 W/m2
13:24 15.8 °C 12.6 °C 1005.3 hPa SSW 19.3 km/h 40.2 km/h 78% 0 mm 213 W/m2
13:29 15.9 °C 12.7 °C 1005.3 hPa SSW 16.7 km/h 40.2 km/h 78.6% 0 mm 146 W/m2
13:34 15.8 °C 12.7 °C 1005.3 hPa SW 13.5 km/h 32.2 km/h 79% 0 mm 169 W/m2
13:39 15.8 °C 12.7 °C 1005 hPa SSW 16.7 km/h 38.6 km/h 79% 0 mm 174 W/m2
13:44 15.7 °C 12.7 °C 1005 hPa South 18.3 km/h 37 km/h 79.6% 0 mm 192 W/m2
13:49 15.7 °C 12.7 °C 1004.6 hPa SSW 17.4 km/h 40.2 km/h 80% 0 mm 584 W/m2
13:54 16 °C 12.9 °C 1004.6 hPa South 17.4 km/h 35.4 km/h 79.5% 0 mm 554 W/m2
13:59 16.1 °C 12.8 °C 1004.6 hPa South 19.3 km/h 40.2 km/h 78.6% 0 mm 404 W/m2
14:04 16.2 °C 12.8 °C 1004.6 hPa South 21.2 km/h 33.8 km/h 78% 0 mm 429 W/m2
14:09 16.1 °C 12.7 °C 1004.3 hPa South 17.1 km/h 35.4 km/h 78% 0 mm 229 W/m2
14:14 16 °C 12.7 °C 1004.3 hPa South 17.1 km/h 29 km/h 78.2% 0 mm 188 W/m2
14:19 15.8 °C 12.7 °C 1004.3 hPa SSW 15.6 km/h 30.6 km/h 79% 0 mm 221 W/m2
14:24 15.8 °C 12.6 °C 1004.3 hPa SSW 22.2 km/h 38.6 km/h 78.6% 0 mm 218 W/m2
14:29 15.8 °C 12.6 °C 1004.3 hPa SSW 16.7 km/h 38.6 km/h 78.2% 0 mm 190 W/m2
14:34 15.8 °C 12.6 °C 1003.9 hPa South 15.9 km/h 38.6 km/h 78.4% 0 mm 165 W/m2
14:39 15.7 °C 12.6 °C 1003.9 hPa SSW 19 km/h 35.4 km/h 79% 0 mm 135 W/m2
14:44 15.6 °C 12.6 °C 1003.9 hPa SSW 13.8 km/h 35.4 km/h 80% 0 mm 232 W/m2
14:49 15.7 °C 12.6 °C 1003.9 hPa South 20.1 km/h 33.8 km/h 79.3% 0 mm 309 W/m2
14:54 15.8 °C 12.7 °C 1003.9 hPa South 23.8 km/h 43.5 km/h 79% 0 mm 290 W/m2
14:59 15.7 °C 12.7 °C 1003.9 hPa South 17.1 km/h 43.5 km/h 80% 0 mm 202 W/m2
15:04 15.6 °C 12.7 °C 1003.6 hPa SSW 14.2 km/h 35.4 km/h 80.4% 0 mm 165 W/m2
15:09 15.6 °C 12.7 °C 1003.6 hPa SSW 14.8 km/h 35.4 km/h 80.8% 0 mm 169 W/m2
15:14 15.6 °C 12.7 °C 1003.6 hPa South 17.4 km/h 35.4 km/h 80.6% 0 mm 142 W/m2
15:19 15.5 °C 12.6 °C 1003.6 hPa SSW 15.4 km/h 41.8 km/h 80.2% 0 mm 98 W/m2
15:24 15.5 °C 12.6 °C 1003.6 hPa South 10.3 km/h 32.2 km/h 80% 0 mm 79 W/m2
15:29 15.5 °C 12.6 °C 1003.6 hPa SSW 13.7 km/h 30.6 km/h 80% 0 mm 54 W/m2
15:34 15.5 °C 12.6 °C 1003.6 hPa South 12.9 km/h 25.7 km/h 80.2% 0 mm 39 W/m2
15:39 15.4 °C 12.6 °C 1003.6 hPa SSW 13.8 km/h 25.7 km/h 81% 0 mm 32 W/m2
15:44 15.3 °C 12.6 °C 1003.6 hPa SSW 13.8 km/h 29 km/h 81% 0 mm 42 W/m2
15:49 15.3 °C 12.7 °C 1003.6 hPa South 14.8 km/h 33.8 km/h 82% 0 mm 107 W/m2
15:54 15.3 °C 12.8 °C 1003.3 hPa SSW 14 km/h 33.8 km/h 82% 0 mm 113 W/m2
15:59 15.4 °C 12.8 °C 1003.3 hPa South 12.6 km/h 33.8 km/h 82% 0 mm 100 W/m2
16:04 15.4 °C 12.8 °C 1003.3 hPa SSW 14.2 km/h 30.6 km/h 82% 0 mm 81 W/m2
16:09 15.4 °C 12.8 °C 1003.3 hPa South 14.2 km/h 25.7 km/h 82% 0 mm 65 W/m2
16:14 15.3 °C 12.8 °C 1003.3 hPa SSW 19.3 km/h 32.2 km/h 82% 0 mm 53 W/m2
16:19 15.3 °C 12.9 °C 1003.3 hPa South 12.6 km/h 32.2 km/h 83% 0 mm 25 W/m2
16:24 15.3 °C 12.9 °C 1003.3 hPa South 15.8 km/h 33.8 km/h 83% 0 mm 23 W/m2
16:29 15.3 °C 12.9 °C 1002.9 hPa South 10.3 km/h 25.7 km/h 83% 0 mm 18 W/m2
16:34 15.3 °C 12.8 °C 1003.3 hPa SSW 11.3 km/h 19.3 km/h 83% 0 mm 19 W/m2
16:39 15.2 °C 12.8 °C 1002.9 hPa SSW 9.5 km/h 22.5 km/h 83% 0 mm 30 W/m2
16:44 15.2 °C 12.8 °C 1002.9 hPa SSW 9 km/h 20.9 km/h 83% 0 mm 35 W/m2
16:49 15.2 °C 13 °C 1002.9 hPa South 10.9 km/h 20.9 km/h 84% 0 mm 30 W/m2
16:54 15.2 °C 13 °C 1002.9 hPa SSW 10.6 km/h 25.7 km/h 84% 0 mm 23 W/m2
16:59 15.1 °C 12.9 °C 1002.9 hPa South 12.6 km/h 27.4 km/h 84% 0 mm 19 W/m2
17:04 15.1 °C 12.9 °C 1002.9 hPa South 14.5 km/h 29 km/h 84% 0 mm 14 W/m2
17:09 15.1 °C 12.9 °C 1002.9 hPa South 11.7 km/h 24.1 km/h 84% 0 mm 7 W/m2
17:14 15 °C 12.8 °C 1002.9 hPa South 12.6 km/h 27.4 km/h 84% 0 mm 7 W/m2
17:19 14.9 °C 12.7 °C 1002.9 hPa South 17.7 km/h 35.4 km/h 84% 0 mm 7 W/m2
17:24 14.9 °C 12.7 °C 1002.9 hPa South 16.1 km/h 32.2 km/h 84% 0 mm 7 W/m2
17:29 14.9 °C 12.7 °C 1002.9 hPa South 12.9 km/h 22.5 km/h 84% 0 mm 7 W/m2
17:34 14.9 °C 12.7 °C 1002.9 hPa SSW 8.4 km/h 22.5 km/h 84% 0 mm 7 W/m2
17:39 14.9 °C 12.7 °C 1002.9 hPa South 9.7 km/h 29 km/h 84% 0 mm 0 W/m2
17:44 14.8 °C 12.6 °C 1002.9 hPa South 16.4 km/h 27.4 km/h 84% 0 mm 0 W/m2
17:49 14.8 °C 12.6 °C 1002.9 hPa South 12.7 km/h 27.4 km/h 84% 0 mm 0 W/m2
17:54 14.8 °C 12.6 °C 1002.9 hPa South 16.1 km/h 35.4 km/h 84% 0 mm 0 W/m2
17:59 14.7 °C 12.6 °C 1002.6 hPa SSE 10.5 km/h 32.2 km/h 84.2% 0 mm 0 W/m2
18:04 14.7 °C 12.7 °C 1002.6 hPa SSE 13.2 km/h 27.4 km/h 85% 0 mm 0 W/m2
18:09 14.7 °C 12.7 °C 1002.6 hPa South 10.9 km/h 27.4 km/h 85% 0 mm 0 W/m2
18:14 14.7 °C 12.7 °C 1002.6 hPa SSE 11.3 km/h 25.7 km/h 85% 0 mm 0 W/m2
18:19 14.7 °C 12.7 °C 1002.3 hPa SSE 14.8 km/h 30.6 km/h 85% 0 mm 0 W/m2
18:24 14.7 °C 12.7 °C 1002.6 hPa South 10.9 km/h 25.7 km/h 85% 0 mm 0 W/m2
18:29 14.7 °C 12.7 °C 1002.3 hPa South 15.4 km/h 27.4 km/h 85% 0 mm 0 W/m2
18:34 14.7 °C 12.7 °C 1002.3 hPa South 15.1 km/h 29 km/h 85% 0 mm 0 W/m2
18:39 14.7 °C 12.7 °C 1002.3 hPa SSE 17.4 km/h 32.2 km/h 85% 0 mm 0 W/m2
18:44 14.7 °C 12.7 °C 1001.9 hPa SSE 18.7 km/h 33.8 km/h 85% 0 mm 0 W/m2
18:49 14.7 °C 12.7 °C 1001.9 hPa SSE 15 km/h 25.7 km/h 85% 0 mm 0 W/m2
18:54 14.7 °C 12.8 °C 1001.9 hPa SSE 12.9 km/h 33.8 km/h 85.2% 0 mm 0 W/m2
18:59 14.7 °C 12.8 °C 1001.9 hPa SSE 16.1 km/h 22.5 km/h 85.8% 0 mm 0 W/m2
19:04 14.7 °C 12.9 °C 1001.9 hPa South 16.1 km/h 29 km/h 86.2% 0 mm 0 W/m2
19:09 14.4 °C 12.8 °C 1001.9 hPa South 18.3 km/h 32.2 km/h 87% 0 mm 0 W/m2
19:14 14.4 °C 12.8 °C 1001.9 hPa SSE 12.6 km/h 32.2 km/h 87.2% 0 mm 0 W/m2
19:19 14.4 °C 12.9 °C 1001.9 hPa SSE 13.2 km/h 29 km/h 88% 0 mm 0 W/m2
19:24 14.4 °C 12.9 °C 1001.9 hPa South 10.6 km/h 29 km/h 88% 0 mm 0 W/m2
19:29 14.4 °C 12.9 °C 1001.9 hPa South 9.7 km/h 24.1 km/h 88% 0 mm 0 W/m2
19:34 14.4 °C 12.9 °C 1001.6 hPa South 11.3 km/h 24.1 km/h 88% 0 mm 0 W/m2
19:39 14.4 °C 12.9 °C 1001.6 hPa South 12.9 km/h 29 km/h 88% 0 mm 0 W/m2
19:44 14.5 °C 13 °C 1001.6 hPa South 16.1 km/h 30.6 km/h 88% 0 mm 0 W/m2
19:49 14.5 °C 13 °C 1001.6 hPa South 11.9 km/h 29 km/h 88% 0 mm 0 W/m2
19:54 14.6 °C 13.1 °C 1001.6 hPa SSE 15.1 km/h 29 km/h 88% 0 mm 0 W/m2
19:59 14.6 °C 13.1 °C 1001.2 hPa South 19 km/h 25.7 km/h 88% 0 mm 0 W/m2
20:04 14.6 °C 13.1 °C 1001.2 hPa South 13.4 km/h 24.1 km/h 88% 0 mm 0 W/m2
20:09 14.6 °C 13.1 °C 1001.2 hPa SSE 18.7 km/h 37 km/h 88% 0 mm 0 W/m2
20:14 14.7 °C 13.2 °C 1001.2 hPa SSE 15 km/h 37 km/h 88% 0 mm 0 W/m2
20:19 14.6 °C 13.1 °C 1001.2 hPa SSE 12.2 km/h 33.8 km/h 88% 0 mm 0 W/m2
20:24 14.3 °C 13 °C 1001.2 hPa South 12.9 km/h 33.8 km/h 88.8% 0 mm 0 W/m2
20:29 14.2 °C 13 °C 1000.9 hPa SSE 14.2 km/h 22.5 km/h 89.2% 0.25 mm 0 W/m2
20:34 14.2 °C 13.1 °C 1000.9 hPa SSE 12.9 km/h 29 km/h 90% 0.25 mm 0 W/m2
20:39 14.1 °C 13 °C 1000.9 hPa South 14 km/h 27.4 km/h 90% 0.25 mm 0 W/m2
20:43 14.2 °C 13.1 °C 1000.9 hPa SSE 12.7 km/h 29 km/h 90% 0.25 mm 0 W/m2
20:49 14.2 °C 13.1 °C 1000.9 hPa South 14.8 km/h 29 km/h 90.2% 0.25 mm 0 W/m2
20:54 14.2 °C 13.1 °C 1000.9 hPa South 16.1 km/h 33.8 km/h 90% 0.25 mm 0 W/m2
20:59 14.2 °C 13.1 °C 1000.9 hPa South 10 km/h 22.5 km/h 90.2% 0.25 mm 0 W/m2
21:04 14.1 °C 13.1 °C 1000.6 hPa South 12.6 km/h 20.9 km/h 90.4% 0.51 mm 0 W/m2
21:09 14.1 °C 13.1 °C 1000.6 hPa South 10.6 km/h 24.1 km/h 91% 0.51 mm 0 W/m2
21:14 14 °C 13 °C 1000.6 hPa South 10.1 km/h 30.6 km/h 91% 0.51 mm 0 W/m2
21:19 14 °C 13 °C 1000.6 hPa South 10 km/h 24.1 km/h 91% 0.51 mm 0 W/m2
21:24 14 °C 13 °C 1000.2 hPa South 12.2 km/h 22.5 km/h 91% 0.51 mm 0 W/m2
21:29 14 °C 13 °C 1000.2 hPa South 16.7 km/h 29 km/h 91% 0.51 mm 0 W/m2
21:34 14 °C 13 °C 1000.2 hPa South 12.6 km/h 22.5 km/h 91% 0.51 mm 0 W/m2
21:39 14 °C 13 °C 1000.2 hPa South 12.7 km/h 24.1 km/h 91% 0.51 mm 0 W/m2
21:44 14 °C 13.1 °C 1000.2 hPa South 8.5 km/h 19.3 km/h 91.2% 0.51 mm 0 W/m2
21:49 14.1 °C 13.2 °C 1000.2 hPa SSE 11.6 km/h 24.1 km/h 91.4% 0.51 mm 0 W/m2
21:54 14.1 °C 13.2 °C 1000.2 hPa South 16.7 km/h 29 km/h 91.6% 0.51 mm 0 W/m2
21:59 14.1 °C 13.3 °C 1000.2 hPa South 11.3 km/h 24.1 km/h 92% 0.51 mm 0 W/m2
22:04 14.1 °C 13.2 °C 999.9 hPa South 12.1 km/h 20.9 km/h 92% 0.51 mm 0 W/m2
22:09 14 °C 13.2 °C 999.9 hPa SSE 10.9 km/h 19.3 km/h 92% 0.25 mm 0 W/m2
22:14 14.1 °C 13.3 °C 999.9 hPa South 8.5 km/h 22.5 km/h 92% 0.25 mm 0 W/m2
22:19 14.1 °C 13.3 °C 1000.2 hPa South 10.6 km/h 22.5 km/h 92% 0.25 mm 0 W/m2
22:24 14.2 °C 13.3 °C 999.9 hPa South 10.6 km/h 25.7 km/h 92% 0.25 mm 0 W/m2
22:29 14.2 °C 13.4 °C 999.9 hPa South 10.6 km/h 29 km/h 92% 0.25 mm 0 W/m2
22:34 14.3 °C 13.5 °C 999.9 hPa SSW 15.8 km/h 27.4 km/h 92% 0.25 mm 0 W/m2
22:38 14.3 °C 13.5 °C 999.9 hPa South 6.8 km/h 27.4 km/h 92% 0.25 mm 0 W/m2
22:44 14.3 °C 13.5 °C 999.9 hPa South 8.7 km/h 20.9 km/h 92% 0.25 mm 0 W/m2
22:49 14.3 °C 13.5 °C 999.9 hPa South 11.9 km/h 24.1 km/h 92% 0.25 mm 0 W/m2
22:54 14.3 °C 13.5 °C 999.9 hPa South 12.6 km/h 25.7 km/h 92% 0.25 mm 0 W/m2
22:59 14.3 °C 13.5 °C 999.9 hPa South 8 km/h 24.1 km/h 92% 0.25 mm 0 W/m2
23:04 14.3 °C 13.6 °C 999.5 hPa South 9 km/h 20.9 km/h 92% 0 mm 0 W/m2
23:09 14.4 °C 13.6 °C 999.5 hPa South 11.6 km/h 24.1 km/h 92% 0 mm 0 W/m2
23:14 14.4 °C 13.6 °C 999.5 hPa South 9.7 km/h 17.7 km/h 92% 0 mm 0 W/m2
23:19 14.4 °C 13.6 °C 999.5 hPa South 9.2 km/h 19.3 km/h 92% 0.25 mm 0 W/m2
23:24 14.5 °C 13.7 °C 999.5 hPa South 9.8 km/h 24.1 km/h 92% 0.25 mm 0 W/m2
23:29 14.6 °C 13.7 °C 999.5 hPa South 11.9 km/h 19.3 km/h 92% 0.25 mm 0 W/m2
23:33 14.6 °C 13.7 °C 999.5 hPa South 12.6 km/h 20.9 km/h 92% 0.25 mm 0 W/m2
23:39 14.6 °C 13.8 °C 999.2 hPa South 9 km/h 27.4 km/h 92% 0.25 mm 0 W/m2
23:44 14.5 °C 13.7 °C 999.2 hPa South 8.4 km/h 19.3 km/h 92% 0.25 mm 0 W/m2
23:49 14.6 °C 13.6 °C 999.2 hPa SSW 15.1 km/h 25.7 km/h 91.4% 0.25 mm 0 W/m2
23:54 14.6 °C 13.6 °C 999.2 hPa South 10 km/h 22.5 km/h 91% 0.25 mm 0 W/m2
23:59 14.6 °C 13.6 °C 999.2 hPa South 10.9 km/h 27.4 km/h 91% 0.25 mm 0 W/m2
Bath Spa Weather
Compliments of Weather Underground - 2 mb